Terminal Aerodrome Forecast
Issued by NWS Wilmington, OH

Current Version | Previous Version | Graphics & Text | Print | Product List | Glossary On
Versions: 1 2 3 4 5 6 7 8 9 10 11 12 13 14 15
000
FTUS41 KILN 211800 AAA
TAFDAY
TAF AMD
KDAY 211804Z 2118/2218 32012KT P6SM OVC040
      TEMPO 2118/2119 -RA
     FM212300 28008KT P6SM SCT040
     FM220300 24006KT P6SM SKC
     FM221300 29008KT P6SM SCT040=

USA.gov is the U.S. government's official web portal to all federal, state and local government web resources and services.